Blue Goose, West Virginia
Current Conditions -  °F | °C
As of 4:02 PM on Thursday 23 Oct 2014 (Local Time) from KPKB Reporting Station
Overcast Overcast  
Wind Chill: 56°   Ceiling: 3100
Heat Index: 56°   Visibility: 10mi
Dew Point: 42°   Wind: 6mph
Humidity: 60%   Direction: NA
Pressure: 30.15"   Gusts: NA
Location:  38.9676°N, 81.429°W
Report Text: KPKB 232002Z AUTO VRB05KT 10SM OVC031 13/06 A3015 RMK AO2 T01330056
Loading
Personal Weather Stations






























Interactive Weather Map
Tropical Storm Tracking
New forecast layout! Learn more

10-Day Weather Forecast

Advertisements
Track Severe Weather on mobile